首页
METAR-TAF:

METAR-TAF

机场 :

阿什维尔, 北卡罗来纳州, 美国

纬度: 35-25-55N, 经度: 082-32-15W, 海拔: 660米

当前天气观测

该预报发布于43分钟前的15:54 UTC
风速8节,风向
温度 6°C
湿度 52%
气压 1025 hPa
能見度: 16.1公里
天空无云

METAR: KAVL 211554Z 35008KT 10SM CLR 06/M03 A3026 RMK AO2 SLP249 T00611028

时间: 11:37 (16:37 UTC)

预报

该预报发布于5小时和6分钟前的11:31 UTC
预报有效从21日的 12点(UTC)到 22日的 12点(UTC)
风速6节,风向北转西北
能見度: 10公里
少量云层高于1500英尺
从 21日的 1500点(UTC)
风速8节,风向北转西北
能見度: 10公里
少量云层高于25000英尺
从 22日的 0200点(UTC)
风速4节,风向
能見度: 10公里
散云层高于20000英尺

TAF: KAVL 211131Z 2112/2212 34006KT P6SM FEW015 FM211500 33008KT P6SM FEW250 FM220200 35004KT P6SM SCT200

超过4000个机场的气象观测和天气预报(METAR&TAF报告)。

可查询的气象台以黄色和红色小点在地图上表示。

将鼠标移到小点上方,可查看气象台名称。

然后点击查看天气观测和预报。

如需切换地图:点击带黑十字的绿色按钮放大地图;点击带横线的绿色按钮缩小地图;或者点击绿色箭头查看邻近地区的地图。


METAR-TAF: